AAY2711 KPIE-KPSM
Flight info
| Callsign | AAY2711 |
|---|---|
| Flight time | N/A |
| Altitude | 37000 |
| Route | BAYPO2 CAMJO HEPAR Q99 POLYY DADDS Q87 GEARS BBOBO Q22 FOXWD KLANE TTERI REMDG |
| Aircraft | B38M/M-SDE1FGHILORVWXY/HB1 |
Departure
| Time | N/A |
|---|---|
| Airport | St. Petersburg Clearwater International Airport (KPIE) |
Arrival
| Time | 2026-05-04 01:02 |
|---|---|
| Airport | Portsmouth International Airport at Pease (KPSM) |
| Time | Latitude | Longitude | Altitude | Speed | Heading |
|---|---|---|---|---|---|
| 2026-05-03 23:30 | 40.42055 | -74.26166 | 36930 ft | 495 kts | 33° |
| 2026-05-03 23:30 | 40.44725 | -74.23295 | 36953 ft | 498 kts | 33° |
| 2026-05-03 23:30 | 40.50086 | -74.17522 | 36944 ft | 497 kts | 34° |
| 2026-05-03 23:31 | 40.55420 | -74.11767 | 36936 ft | 496 kts | 34° |
| 2026-05-03 23:31 | 40.60735 | -74.06020 | 36935 ft | 496 kts | 34° |
| 2026-05-03 23:32 | 40.66072 | -74.00237 | 36953 ft | 497 kts | 34° |
| 2026-05-03 23:32 | 40.71390 | -73.94461 | 36928 ft | 494 kts | 34° |
| 2026-05-03 23:33 | 40.76671 | -73.88715 | 36917 ft | 495 kts | 34° |
| 2026-05-03 23:33 | 40.81978 | -73.82927 | 36918 ft | 495 kts | 34° |
| 2026-05-03 23:34 | 40.87012 | -73.76722 | 36867 ft | 500 kts | 51° |
| 2026-05-03 23:34 | 40.91039 | -73.69201 | 36871 ft | 502 kts | 51° |
| 2026-05-03 23:35 | 40.95077 | -73.61651 | 36896 ft | 504 kts | 51° |
| 2026-05-03 23:35 | 40.99107 | -73.54040 | 36900 ft | 504 kts | 51° |
| 2026-05-03 23:36 | 41.03119 | -73.46444 | 36908 ft | 503 kts | 51° |
| 2026-05-03 23:36 | 41.07123 | -73.38845 | 36900 ft | 502 kts | 51° |
| 2026-05-03 23:37 | 41.11115 | -73.31248 | 36893 ft | 502 kts | 51° |
| 2026-05-03 23:37 | 41.15112 | -73.23625 | 36894 ft | 504 kts | 52° |
| 2026-05-03 23:38 | 41.19104 | -73.15991 | 36907 ft | 502 kts | 52° |
| 2026-05-03 23:38 | 41.23079 | -73.08371 | 36909 ft | 501 kts | 52° |
| 2026-05-03 23:39 | 41.27020 | -73.00799 | 36904 ft | 502 kts | 52° |
| 2026-05-03 23:39 | 41.30726 | -72.92915 | 36912 ft | 504 kts | 57° |
| 2026-05-03 23:40 | 41.34312 | -72.84876 | 36925 ft | 504 kts | 56° |
| 2026-05-03 23:40 | 41.37895 | -72.76899 | 36903 ft | 502 kts | 56° |
| 2026-05-03 23:41 | 41.41475 | -72.68910 | 36905 ft | 502 kts | 56° |
| 2026-05-03 23:41 | 41.45053 | -72.60906 | 36906 ft | 502 kts | 56° |
| 2026-05-03 23:42 | 41.48632 | -72.52879 | 36894 ft | 504 kts | 56° |
| 2026-05-03 23:42 | 41.52207 | -72.44837 | 36884 ft | 504 kts | 57° |
| 2026-05-03 23:43 | 41.53966 | -72.40873 | 36774 ft | 499 kts | 56° |
| 2026-05-03 23:43 | 41.55737 | -72.36879 | 36037 ft | 501 kts | 56° |
| 2026-05-03 23:43 | 41.57520 | -72.32849 | 35102 ft | 507 kts | 56° |
| 2026-05-03 23:43 | 41.59323 | -72.28769 | 34227 ft | 512 kts | 56° |
| 2026-05-03 23:44 | 41.61122 | -72.24695 | 33730 ft | 506 kts | 56° |
| 2026-05-03 23:44 | 41.62897 | -72.20667 | 33230 ft | 499 kts | 56° |
| 2026-05-03 23:44 | 41.64644 | -72.16698 | 32747 ft | 492 kts | 56° |
| 2026-05-03 23:44 | 41.66371 | -72.12770 | 32285 ft | 486 kts | 56° |
| 2026-05-03 23:45 | 41.68067 | -72.08906 | 31853 ft | 479 kts | 56° |
| 2026-05-03 23:45 | 41.69743 | -72.05085 | 31441 ft | 472 kts | 56° |
| 2026-05-03 23:45 | 41.71390 | -72.01322 | 31053 ft | 466 kts | 55° |
| 2026-05-03 23:45 | 41.73016 | -71.97607 | 30680 ft | 459 kts | 55° |
| 2026-05-03 23:46 | 41.74614 | -71.93948 | 30371 ft | 451 kts | 55° |
| 2026-05-03 23:46 | 41.76184 | -71.90348 | 30097 ft | 443 kts | 55° |
| 2026-05-03 23:46 | 41.77729 | -71.86807 | 29814 ft | 436 kts | 55° |
| 2026-05-03 23:46 | 41.79239 | -71.83339 | 29539 ft | 427 kts | 54° |
| 2026-05-03 23:47 | 41.80754 | -71.79972 | 29297 ft | 415 kts | 49° |
| 2026-05-03 23:47 | 41.82493 | -71.76961 | 28985 ft | 406 kts | 46° |
| 2026-05-03 23:47 | 41.84198 | -71.73940 | 28493 ft | 404 kts | 47° |
| 2026-05-03 23:47 | 41.85869 | -71.70935 | 28117 ft | 400 kts | 47° |
| 2026-05-03 23:48 | 41.87519 | -71.67944 | 27698 ft | 398 kts | 47° |
| 2026-05-03 23:48 | 41.89139 | -71.64994 | 27314 ft | 394 kts | 47° |
| 2026-05-03 23:48 | 41.90760 | -71.62036 | 26922 ft | 391 kts | 47° |
| 2026-05-03 23:48 | 41.92366 | -71.59101 | 26550 ft | 388 kts | 47° |
| 2026-05-03 23:49 | 41.93955 | -71.56193 | 26212 ft | 385 kts | 47° |
| 2026-05-03 23:49 | 41.95531 | -71.53309 | 25891 ft | 381 kts | 47° |
| 2026-05-03 23:49 | 41.97093 | -71.50446 | 25513 ft | 378 kts | 47° |
| 2026-05-03 23:49 | 41.98640 | -71.47606 | 25161 ft | 375 kts | 47° |
| 2026-05-03 23:50 | 42.00177 | -71.44784 | 24816 ft | 372 kts | 47° |
| 2026-05-03 23:50 | 42.01186 | -71.42930 | 24595 ft | 371 kts | 46° |
| 2026-05-03 23:50 | 42.02703 | -71.40140 | 24240 ft | 368 kts | 46° |
| 2026-05-03 23:50 | 42.04716 | -71.36434 | 23790 ft | 365 kts | 46° |
| 2026-05-03 23:51 | 42.05705 | -71.34611 | 23571 ft | 363 kts | 46° |
| 2026-05-03 23:51 | 42.07190 | -71.31870 | 23195 ft | 361 kts | 46° |
| 2026-05-03 23:51 | 42.08664 | -71.29148 | 22800 ft | 359 kts | 46° |
| 2026-05-03 23:51 | 42.10126 | -71.26447 | 22458 ft | 355 kts | 46° |
| 2026-05-03 23:52 | 42.11578 | -71.23762 | 22019 ft | 354 kts | 46° |
| 2026-05-03 23:52 | 42.13023 | -71.21087 | 21646 ft | 352 kts | 46° |
| 2026-05-03 23:52 | 42.14460 | -71.18426 | 21257 ft | 350 kts | 46° |
| 2026-05-03 23:52 | 42.15888 | -71.15778 | 20887 ft | 348 kts | 46° |
| 2026-05-03 23:53 | 42.17307 | -71.13144 | 20511 ft | 346 kts | 46° |
| 2026-05-03 23:53 | 42.18716 | -71.10526 | 20133 ft | 344 kts | 46° |
| 2026-05-03 23:53 | 42.20120 | -71.07916 | 19785 ft | 343 kts | 47° |
| 2026-05-03 23:53 | 42.20216 | -71.07738 | 19759 ft | 343 kts | 47° |
| 2026-05-04 00:17 | 42.20472 | -71.07262 | 19671 ft | 343 kts | 47° |
| 2026-05-04 00:18 | 42.21877 | -71.04651 | 19292 ft | 342 kts | 47° |
| 2026-05-04 00:18 | 42.23263 | -71.02066 | 18962 ft | 339 kts | 47° |
| 2026-05-04 00:18 | 42.24645 | -70.99489 | 18644 ft | 337 kts | 47° |
| 2026-05-04 00:18 | 42.25991 | -70.96978 | 18318 ft | 335 kts | 47° |
| 2026-05-04 00:19 | 42.27356 | -70.94428 | 17953 ft | 333 kts | 47° |
| 2026-05-04 00:19 | 42.28708 | -70.91900 | 17574 ft | 331 kts | 47° |
| 2026-05-04 00:19 | 42.30054 | -70.89384 | 17210 ft | 329 kts | 47° |
| 2026-05-04 00:19 | 42.31390 | -70.86883 | 16841 ft | 328 kts | 47° |
| 2026-05-04 00:20 | 42.32722 | -70.84387 | 16469 ft | 326 kts | 47° |
| 2026-05-04 00:20 | 42.34044 | -70.81907 | 16103 ft | 324 kts | 47° |
| 2026-05-04 00:20 | 42.35357 | -70.79442 | 15756 ft | 322 kts | 47° |
| 2026-05-04 00:20 | 42.36664 | -70.76988 | 15395 ft | 321 kts | 47° |
| 2026-05-04 00:21 | 42.37965 | -70.74544 | 15042 ft | 319 kts | 47° |
| 2026-05-04 00:21 | 42.39260 | -70.72108 | 14735 ft | 317 kts | 47° |
| 2026-05-04 00:21 | 42.40543 | -70.69694 | 14391 ft | 316 kts | 47° |
| 2026-05-04 00:21 | 42.41882 | -70.67366 | 14050 ft | 309 kts | 39° |
| 2026-05-04 00:22 | 42.43377 | -70.65291 | 13710 ft | 307 kts | 39° |
| 2026-05-04 00:22 | 42.44852 | -70.63208 | 13358 ft | 306 kts | 39° |
| 2026-05-04 00:22 | 42.46310 | -70.61121 | 13002 ft | 304 kts | 40° |
| 2026-05-04 00:22 | 42.47751 | -70.59042 | 12727 ft | 300 kts | 40° |
| 2026-05-04 00:23 | 42.49155 | -70.57008 | 12519 ft | 293 kts | 40° |
| 2026-05-04 00:23 | 42.50545 | -70.54988 | 12165 ft | 292 kts | 40° |
| 2026-05-04 00:23 | 42.52080 | -70.53306 | 11834 ft | 277 kts | 18° |
| 2026-05-04 00:23 | 42.53858 | -70.52725 | 11476 ft | 261 kts | 353° |
| 2026-05-04 00:24 | 42.55613 | -70.53097 | 11142 ft | 253 kts | 341° |
| 2026-05-04 00:24 | 42.57316 | -70.53710 | 10801 ft | 252 kts | 340° |
| 2026-05-04 00:24 | 42.58225 | -70.54060 | 10621 ft | 251 kts | 340° |
| 2026-05-04 00:49 | 42.58383 | -70.54122 | 10589 ft | 251 kts | 339° |
| 2026-05-04 00:49 | 42.60072 | -70.54810 | 10158 ft | 256 kts | 339° |
| 2026-05-04 00:49 | 42.61759 | -70.55522 | 9954 ft | 250 kts | 338° |
| 2026-05-04 00:49 | 42.63385 | -70.56228 | 9674 ft | 248 kts | 338° |
| 2026-05-04 00:50 | 42.65021 | -70.56948 | 9361 ft | 245 kts | 338° |
| 2026-05-04 00:50 | 42.66644 | -70.57668 | 9009 ft | 245 kts | 338° |
| 2026-05-04 00:50 | 42.68257 | -70.58389 | 8667 ft | 244 kts | 338° |
| 2026-05-04 00:50 | 42.69866 | -70.59109 | 8363 ft | 242 kts | 337° |
| 2026-05-04 00:51 | 42.71464 | -70.59827 | 8032 ft | 240 kts | 337° |
| 2026-05-04 00:51 | 42.73040 | -70.60535 | 7503 ft | 239 kts | 337° |
| 2026-05-04 00:51 | 42.74609 | -70.61242 | 7006 ft | 236 kts | 337° |
| 2026-05-04 00:51 | 42.76164 | -70.61942 | 6526 ft | 235 kts | 337° |
| 2026-05-04 00:52 | 42.77711 | -70.62639 | 6028 ft | 233 kts | 337° |
| 2026-05-04 00:52 | 42.79233 | -70.63325 | 5623 ft | 226 kts | 337° |
| 2026-05-04 00:52 | 42.80676 | -70.63976 | 5348 ft | 216 kts | 336° |
| 2026-05-04 00:52 | 42.82072 | -70.64606 | 5094 ft | 206 kts | 336° |
| 2026-05-04 00:53 | 42.83403 | -70.65205 | 4843 ft | 196 kts | 336° |
| 2026-05-04 00:53 | 42.84682 | -70.65783 | 4560 ft | 192 kts | 337° |
| 2026-05-04 00:53 | 42.85946 | -70.66355 | 4297 ft | 191 kts | 337° |
| 2026-05-04 00:53 | 42.87195 | -70.66921 | 4077 ft | 189 kts | 337° |
| 2026-05-04 00:54 | 42.88455 | -70.67490 | 3910 ft | 192 kts | 337° |
| 2026-05-04 00:54 | 42.89734 | -70.68042 | 3774 ft | 193 kts | 337° |
| 2026-05-04 00:54 | 42.90968 | -70.68733 | 3580 ft | 191 kts | 330° |
| 2026-05-04 00:54 | 42.92114 | -70.69564 | 3431 ft | 181 kts | 327° |
| 2026-05-04 00:55 | 42.93186 | -70.70414 | 3187 ft | 175 kts | 327° |
| 2026-05-04 00:55 | 42.94210 | -70.71246 | 2943 ft | 168 kts | 327° |
| 2026-05-04 00:55 | 42.95155 | -70.72015 | 2738 ft | 148 kts | 326° |
| 2026-05-04 00:55 | 42.96016 | -70.72717 | 2537 ft | 143 kts | 327° |
| 2026-05-04 00:56 | 42.96802 | -70.73357 | 2372 ft | 143 kts | 326° |
| 2026-05-04 00:58 | 42.97637 | -70.74038 | 2172 ft | 143 kts | 326° |
| 2026-05-04 00:59 | 42.98492 | -70.74736 | 1973 ft | 144 kts | 326° |
| 2026-05-04 00:59 | 42.99350 | -70.75435 | 1765 ft | 143 kts | 326° |
| 2026-05-04 00:59 | 43.00188 | -70.76118 | 1564 ft | 135 kts | 326° |
| 2026-05-04 00:59 | 43.00949 | -70.76739 | 1427 ft | 126 kts | 326° |
| 2026-05-04 01:00 | 43.01693 | -70.77347 | 1235 ft | 123 kts | 326° |
| 2026-05-04 01:00 | 43.02434 | -70.77952 | 1052 ft | 125 kts | 326° |
| 2026-05-04 01:00 | 43.03194 | -70.78574 | 849 ft | 130 kts | 326° |
| 2026-05-04 01:00 | 43.03998 | -70.79248 | 653 ft | 141 kts | 328° |
| 2026-05-04 01:01 | 43.04847 | -70.79917 | 535 ft | 136 kts | 327° |
| 2026-05-04 01:01 | 43.05656 | -70.80580 | 331 ft | 136 kts | 327° |
| 2026-05-04 01:01 | 43.06466 | -70.81237 | 152 ft | 135 kts | 327° |
| 2026-05-04 01:01 | 43.07216 | -70.81857 | 102 ft | 109 kts | 330° |
| 2026-05-04 01:02 | 43.07671 | -70.82225 | 105 ft | 53 kts | 329° |
| 2026-05-04 01:02 | 43.07990 | -70.82485 | 105 ft | 55 kts | 328° |
| 2026-05-04 01:02 | 43.08244 | -70.82693 | 108 ft | 24 kts | 330° |
| 2026-05-04 01:02 | 43.08339 | -70.82593 | 105 ft | 22 kts | 59° |
| 2026-05-04 01:03 | 43.08413 | -70.82417 | 105 ft | 15 kts | 78° |
| 2026-05-04 01:03 | 43.08339 | -70.82315 | 105 ft | 20 kts | 149° |
| 2026-05-04 01:03 | 43.08197 | -70.82195 | 105 ft | 19 kts | 150° |
| 2026-05-04 01:03 | 43.08165 | -70.82077 | 104 ft | 14 kts | 59° |
| 2026-05-04 01:04 | 43.08206 | -70.81960 | 105 ft | 10 kts | 97° |
| 2026-05-04 01:04 | 43.08156 | -70.81882 | 105 ft | 9 kts | 145° |
| 2026-05-04 01:04 | 43.08151 | -70.81838 | 105 ft | 6 kts | 62° |
| 2026-05-04 01:04 | 43.08177 | -70.81794 | 105 ft | 0 kts | 47° |